Time;durP1;ratioP1;P1;durP2;ratioP2;P2;SDS_P1;SDS_P2;PMS_P1;PMS_P2;Temp;Humidity;BMP_temperature;BMP_pressure;BME280_temperature;BME280_humidity;BME280_pressure;Samples;Min_cycle;Max_cycle;Signal;HPM_P1;HPM_P2
2023/10/05 00:02:10;;;;;;;2.92;1.48;;;;;;;21.88;45.01;101270.69;4616635;27;20860;-62
2023/10/05 00:04:22;;;;;;;2.65;1.50;;;;;;;21.90;44.63;101270.31;4618338;27;20035;-62
2023/10/05 00:06:33;;;;;;;3.08;1.42;;;;;;;21.92;44.89;101277.41;4602876;27;20102;-62
2023/10/05 00:08:47;;;;;;;2.53;1.45;;;;;;;21.92;44.83;101282.28;4614629;27;20027;-62
2023/10/05 00:11:00;;;;;;;2.20;1.27;;;;;;;21.89;44.75;101278.13;4615471;27;20039;-63
2023/10/05 00:13:10;;;;;;;2.63;1.30;;;;;;;21.91;44.62;101286.38;4614977;27;20038;-62
2023/10/05 00:15:23;;;;;;;2.38;1.13;;;;;;;21.90;44.64;101285.53;4616409;27;20039;-62
2023/10/05 00:17:36;;;;;;;2.33;1.25;;;;;;;21.88;44.42;101270.69;4615787;27;20027;-62
2023/10/05 00:19:47;;;;;;;2.10;1.20;;;;;;;21.86;44.53;101261.59;4605666;27;20039;-62
2023/10/05 00:21:58;;;;;;;1.63;1.10;;;;;;;21.83;44.67;101245.09;4616082;27;20040;-62
2023/10/05 00:24:08;;;;;;;2.35;1.40;;;;;;;21.87;44.27;101256.66;4616962;27;20054;-62
2023/10/05 00:26:23;;;;;;;2.28;1.13;;;;;;;21.88;44.03;101269.84;4615968;27;20071;-62
2023/10/05 00:28:37;;;;;;;2.10;1.20;;;;;;;21.78;44.06;101253.94;4617173;27;20050;-62
2023/10/05 00:30:48;;;;;;;2.58;1.20;;;;;;;21.90;44.18;101279.78;4614441;27;20111;-62
2023/10/05 00:33:00;;;;;;;1.92;1.23;;;;;;;21.89;44.06;101278.13;4615747;27;20207;-62
2023/10/05 00:35:20;;;;;;;2.47;1.13;;;;;;;21.89;44.11;101268.66;4616175;27;20046;-62
2023/10/05 00:37:34;;;;;;;2.15;1.10;;;;;;;21.86;44.31;101257.88;4617704;27;20087;-63
2023/10/05 00:39:48;;;;;;;2.47;1.10;;;;;;;21.89;43.75;101265.78;4603470;27;20898;-62
2023/10/05 00:44:15;;;;;;;2.75;1.25;;;;;;;21.85;44.17;101265.66;4615633;27;20100;-63
2023/10/05 00:46:26;;;;;;;2.40;1.23;;;;;;;21.85;44.15;101261.97;4615230;27;20037;-62
2023/10/05 00:48:41;;;;;;;2.70;1.20;;;;;;;21.89;44.13;101260.03;4615817;27;20398;-62
2023/10/05 00:50:54;;;;;;;2.20;1.20;;;;;;;21.89;43.69;101260.88;4599268;27;20848;-62
2023/10/05 00:53:07;;;;;;;2.67;1.20;;;;;;;21.88;44.12;101261.25;4616097;27;20035;-63
2023/10/05 00:55:20;;;;;;;2.28;1.13;;;;;;;21.87;44.20;101262.41;4615996;27;20069;-62
2023/10/05 00:57:30;;;;;;;2.25;1.20;;;;;;;21.84;44.14;101266.00;4603359;27;20080;-62
2023/10/05 00:59:47;;;;;;;2.10;0.95;;;;;;;21.88;43.64;101273.56;4615282;27;20068;-62
2023/10/05 01:02:21;;;;;;;2.00;1.00;;;;;;;21.87;43.96;101271.88;4615879;27;20192;-63
2023/10/05 01:06:56;;;;;;;2.53;1.20;;;;;;;21.79;43.73;101255.59;4613303;27;20039;-62
2023/10/05 01:09:33;;;;;;;2.15;1.20;;;;;;;21.89;44.05;101274.41;4615203;27;20027;-62
2023/10/05 01:11:50;;;;;;;2.03;1.02;;;;;;;21.74;43.82;101244.31;4613654;27;20089;-62
2023/10/05 01:14:00;;;;;;;1.92;1.00;;;;;;;21.87;43.76;101269.00;4616535;27;20019;-62
2023/10/05 01:16:19;;;;;;;2.38;1.15;;;;;;;21.83;43.73;101261.47;4615484;27;20520;-62
2023/10/05 01:18:31;;;;;;;2.15;1.17;;;;;;;21.85;43.69;101268.53;4616442;27;20031;-62
2023/10/05 01:20:43;;;;;;;3.13;1.20;;;;;;;21.80;43.79;101250.69;4614008;27;20174;-62
2023/10/05 01:22:55;;;;;;;1.85;0.98;;;;;;;21.80;43.93;101251.53;4614035;27;20074;-62
2023/10/05 01:25:08;;;;;;;2.67;1.00;;;;;;;21.86;43.76;101261.59;4614213;27;20121;-62
2023/10/05 01:27:19;;;;;;;2.47;1.08;;;;;;;21.77;43.87;101246.50;4612113;27;20034;-62
2023/10/05 01:29:29;;;;;;;1.88;1.10;;;;;;;21.85;44.16;101262.78;4617379;27;20487;-62
2023/10/05 01:31:40;;;;;;;2.80;1.50;;;;;;;21.87;43.88;101273.91;4616032;27;20027;-62
2023/10/05 01:33:50;;;;;;;1.70;1.13;;;;;;;21.83;43.84;101262.31;4615717;27;20085;-62
2023/10/05 01:36:03;;;;;;;2.92;1.13;;;;;;;21.83;44.02;101255.72;4614821;27;20043;-62
2023/10/05 01:38:14;;;;;;;3.95;1.40;;;;;;;21.83;43.98;101268.06;4615408;27;20023;-62
2023/10/05 01:40:25;;;;;;;1.92;0.98;;;;;;;21.83;44.06;101273.81;4617507;27;20043;-62
2023/10/05 01:42:35;;;;;;;2.33;1.00;;;;;;;21.85;43.88;101270.59;4618303;27;20042;-62
2023/10/05 01:44:49;;;;;;;1.98;1.02;;;;;;;21.85;43.92;101271.41;4617083;27;20027;-62
2023/10/05 01:47:00;;;;;;;2.17;1.20;;;;;;;21.83;43.66;101259.44;4618744;27;20035;-62
2023/10/05 01:49:10;;;;;;;1.45;0.98;;;;;;;21.82;43.74;101242.53;4617214;27;20544;-62
2023/10/05 01:51:23;;;;;;;1.38;1.08;;;;;;;21.83;44.06;101256.56;4599345;27;20032;-62
2023/10/05 01:53:34;;;;;;;2.22;0.90;;;;;;;21.79;44.04;101255.59;4617849;27;20100;-62
2023/10/05 01:55:45;;;;;;;1.98;1.10;;;;;;;21.83;43.92;101268.06;4619329;27;20038;-62
2023/10/05 01:57:56;;;;;;;3.20;1.27;;;;;;;21.85;44.08;101259.09;4617003;27;20042;-62
2023/10/05 02:00:14;;;;;;;2.13;0.93;;;;;;;21.84;44.07;101263.13;4619306;27;20042;-62
2023/10/05 02:02:26;;;;;;;2.33;1.00;;;;;;;21.80;43.91;101254.41;4618624;27;20038;-62
2023/10/05 02:04:43;;;;;;;2.58;1.10;;;;;;;21.83;43.50;101262.31;4600556;27;20046;-62
2023/10/05 02:06:54;;;;;;;2.65;1.00;;;;;;;21.84;43.50;101260.25;4615078;27;20556;-62
2023/10/05 02:09:05;;;;;;;2.30;1.20;;;;;;;21.82;43.82;101260.63;4618758;27;20039;-62
2023/10/05 02:11:24;;;;;;;1.85;1.25;;;;;;;21.81;43.86;101258.97;4616508;27;20032;-62
2023/10/05 02:13:35;;;;;;;2.70;1.20;;;;;;;21.82;44.15;101254.88;4615124;27;20987;-62
2023/10/05 02:15:52;;;;;;;2.38;1.05;;;;;;;21.81;43.60;101247.47;4617781;27;20883;-62
2023/10/05 02:18:13;;;;;;;;;;;;;;;21.84;43.75;101252.50;4617554;27;20562;-62
2023/10/05 02:22:47;;;;;;;2.67;1.20;;;;;;;21.80;43.87;101251.53;4615017;27;20598;-62
2023/10/05 02:24:59;;;;;;;1.65;1.00;;;;;;;21.79;43.89;101255.59;4616518;27;20039;-62
2023/10/05 02:27:11;;;;;;;3.05;1.30;;;;;;;21.81;44.17;101256.09;4618573;27;20042;-62
2023/10/05 02:29:23;;;;;;;1.67;1.13;;;;;;;21.82;44.10;101254.88;4616961;27;20675;-62
2023/10/05 02:31:34;;;;;;;2.25;0.93;;;;;;;21.79;44.15;101249.00;4618416;27;20020;-62
2023/10/05 02:33:44;;;;;;;1.58;1.10;;;;;;;21.78;43.74;101242.44;4617751;27;20026;-62
2023/10/05 02:36:08;;;;;;;2.33;1.02;;;;;;;21.82;44.29;101249.13;4618595;27;20578;-62
2023/10/05 02:38:21;;;;;;;1.60;1.00;;;;;;;21.70;43.88;101216.66;4616664;27;20027;-62
2023/10/05 02:40:38;;;;;;;2.05;1.05;;;;;;;21.70;44.11;101223.25;4617034;27;20039;-62
2023/10/05 02:42:51;;;;;;;2.08;1.00;;;;;;;21.79;43.58;101238.38;4605434;27;20909;-62
2023/10/05 02:45:03;;;;;;;2.33;1.13;;;;;;;21.79;44.25;101244.09;4618529;27;20848;-62
2023/10/05 02:47:15;;;;;;;2.05;1.00;;;;;;;21.78;44.00;101241.59;4615196;27;20132;-62
2023/10/05 02:49:25;;;;;;;1.50;0.95;;;;;;;21.80;43.71;101242.91;4616907;27;20042;-62
2023/10/05 02:51:36;;;;;;;2.55;0.98;;;;;;;21.76;43.91;101239.09;4615688;27;20020;-63
2023/10/05 02:53:47;;;;;;;1.50;1.00;;;;;;;21.81;44.07;101230.22;4618371;27;20035;-62
2023/10/05 02:55:57;;;;;;;1.60;1.00;;;;;;;21.81;43.96;101235.97;4616297;27;20120;-62
2023/10/05 02:58:08;;;;;;;1.30;0.82;;;;;;;21.80;43.96;101240.03;4598702;27;20082;-62
2023/10/05 03:00:20;;;;;;;1.67;0.90;;;;;;;21.80;44.04;101227.72;4616269;27;20074;-62
2023/10/05 03:02:34;;;;;;;2.78;1.00;;;;;;;21.78;43.98;101235.84;4606383;27;20108;-62
2023/10/05 03:04:46;;;;;;;1.75;0.98;;;;;;;21.80;44.15;101224.84;4617166;27;20034;-62
2023/10/05 03:06:59;;;;;;;1.40;0.90;;;;;;;21.79;44.08;101224.00;4605226;27;20031;-62
2023/10/05 03:09:10;;;;;;;1.85;0.98;;;;;;;21.74;44.04;101220.50;4616544;27;20054;-63
2023/10/05 03:11:22;;;;;;;1.95;0.88;;;;;;;21.76;44.03;101221.00;4617330;27;20023;-62
2023/10/05 03:13:33;;;;;;;1.15;0.70;;;;;;;21.79;43.46;101228.88;4615098;27;20032;-62
2023/10/05 03:15:43;;;;;;;2.13;0.88;;;;;;;21.75;44.03;101214.44;4606762;27;20137;-62
2023/10/05 03:17:56;;;;;;;1.73;0.73;;;;;;;21.78;44.00;101225.19;4618021;27;20471;-62
2023/10/05 03:20:08;;;;;;;1.45;0.70;;;;;;;21.78;44.11;101225.19;4616815;27;20111;-62
2023/10/05 03:22:23;;;;;;;1.13;0.80;;;;;;;21.79;44.28;101226.88;4617037;27;20030;-62
2023/10/05 03:24:37;;;;;;;1.33;0.80;;;;;;;21.77;44.54;101223.50;4605747;27;20031;-62
2023/10/05 03:26:48;;;;;;;2.05;0.80;;;;;;;21.76;44.04;101221.84;4618321;27;20030;-62
2023/10/05 03:29:00;;;;;;;2.35;1.00;;;;;;;21.77;44.28;101223.50;4617143;27;20051;-62
2023/10/05 03:31:31;;;;;;;1.77;0.90;;;;;;;21.78;44.10;101230.94;4617545;27;20848;-62
2023/10/05 03:33:42;;;;;;;1.70;0.90;;;;;;;21.77;44.05;101226.38;4604988;27;20067;-63
2023/10/05 03:35:57;;;;;;;1.67;1.00;;;;;;;21.77;44.04;101223.50;4616823;27;20084;-62
2023/10/05 03:38:08;;;;;;;1.67;0.70;;;;;;;21.78;44.48;101230.09;4617151;27;20027;-62
2023/10/05 03:40:22;;;;;;;1.75;0.88;;;;;;;21.75;44.58;101225.94;4613335;27;20134;-62
2023/10/05 03:42:33;;;;;;;2.03;1.10;;;;;;;21.77;44.58;101237.88;4617994;27;20023;-62
2023/10/05 03:44:43;;;;;;;2.17;0.90;;;;;;;21.75;44.23;101231.66;4617546;27;20027;-62
2023/10/05 03:46:54;;;;;;;2.60;0.80;;;;;;;21.76;44.11;101227.59;4604845;27;21273;-62
2023/10/05 03:49:06;;;;;;;1.33;0.70;;;;;;;21.76;44.54;101227.59;4616454;27;20023;-62
2023/10/05 03:51:17;;;;;;;1.33;0.80;;;;;;;21.74;44.28;101218.44;4617781;27;20144;-62
2023/10/05 03:53:28;;;;;;;1.63;0.95;;;;;;;21.77;44.38;101228.44;4617561;27;20027;-62
2023/10/05 03:55:38;;;;;;;1.45;0.90;;;;;;;21.76;44.51;101221.84;4616082;27;20043;-62
2023/10/05 03:57:49;;;;;;;1.33;1.00;;;;;;;21.74;44.40;101229.94;4599262;27;20030;-62
2023/10/05 04:00:18;;;;;;;2.38;0.90;;;;;;;21.76;44.52;101224.72;4617058;27;20039;-62
2023/10/05 04:02:30;;;;;;;2.38;1.10;;;;;;;21.75;44.35;101220.19;4614311;27;20027;-62
2023/10/05 04:04:42;;;;;;;1.00;0.68;;;;;;;21.74;44.59;101223.38;4614958;27;20031;-62
2023/10/05 04:06:54;;;;;;;1.83;0.73;;;;;;;21.74;44.58;101229.94;4618656;27;20042;-62
2023/10/05 04:09:05;;;;;;;1.90;0.95;;;;;;;21.70;44.59;101211.75;4615806;27;20039;-62
2023/10/05 04:11:17;;;;;;;1.88;1.00;;;;;;;21.75;44.22;101225.03;4617607;27;20839;-62
2023/10/05 04:13:32;;;;;;;1.20;0.80;;;;;;;21.73;44.63;101219.66;4617622;27;20854;-62
2023/10/05 04:15:43;;;;;;;1.73;0.93;;;;;;;21.75;44.75;101223.06;4616621;27;20034;-62
2023/10/05 04:17:53;;;;;;;1.98;0.90;;;;;;;21.69;44.44;101221.56;4616769;27;20031;-62
2023/10/05 04:20:17;;;;;;;1.52;0.77;;;;;;;21.75;44.39;101231.66;4599252;27;20077;-62
2023/10/05 04:22:28;;;;;;;2.05;0.90;;;;;;;21.73;44.68;101216.78;4617177;27;20031;-62
2023/10/05 04:24:38;;;;;;;2.28;0.95;;;;;;;21.71;44.72;101213.44;4617009;27;20027;-62
2023/10/05 04:26:49;;;;;;;2.25;0.70;;;;;;;21.69;44.38;101212.94;4615855;27;20083;-62
2023/10/05 04:29:04;;;;;;;1.30;0.80;;;;;;;21.75;44.75;101219.31;4617255;27;20035;-62
2023/10/05 04:31:14;;;;;;;1.33;0.80;;;;;;;21.75;44.45;101220.19;4604763;27;20119;-62
2023/10/05 04:33:29;;;;;;;1.63;0.90;;;;;;;21.72;44.79;101217.16;4616024;27;20539;-62
2023/10/05 04:35:44;;;;;;;2.33;1.08;;;;;;;21.71;44.77;101212.56;4615146;27;20994;-62
2023/10/05 04:37:56;;;;;;;1.50;0.80;;;;;;;21.75;44.54;101219.31;4615295;27;20035;-62
2023/10/05 04:40:10;;;;;;;2.22;0.90;;;;;;;21.73;44.69;101213.06;4613573;27;20031;-62
2023/10/05 04:42:21;;;;;;;2.22;0.90;;;;;;;21.74;44.43;101214.75;4614903;27;20922;-62
2023/10/05 04:44:33;;;;;;;1.65;0.80;;;;;;;21.72;44.37;101226.59;4615348;27;20051;-62
2023/10/05 04:46:48;;;;;;;1.60;0.90;;;;;;;21.74;44.41;101223.38;4615971;27;20081;-62
2023/10/05 04:49:12;;;;;;;1.10;0.70;;;;;;;21.73;44.48;101216.78;4615237;27;21625;-62
2023/10/05 04:51:29;;;;;;;1.60;0.90;;;;;;;21.69;44.34;101210.06;4615505;27;20034;-62
2023/10/05 04:53:42;;;;;;;1.33;0.90;;;;;;;21.72;44.34;101212.22;4612340;27;20035;-62
2023/10/05 04:56:00;;;;;;;1.90;0.85;;;;;;;21.72;44.49;101214.28;4615435;27;20338;-62
2023/10/05 05:05:40;;;;;;;1.50;0.80;;;;;;;21.71;44.43;101216.31;4586018;27;20050;-62
2023/10/05 05:07:52;;;;;;;1.50;0.80;;;;;;;21.69;44.25;101210.06;4612929;27;20100;-62
2023/10/05 05:10:03;;;;;;;2.25;0.80;;;;;;;21.71;44.43;101213.44;4613662;27;20058;-62
2023/10/05 05:12:16;;;;;;;2.03;0.70;;;;;;;21.71;44.32;101203.97;4615066;27;20083;-62
2023/10/05 05:14:27;;;;;;;0.93;0.63;;;;;;;21.71;44.51;101213.44;4615666;27;20103;-62
2023/10/05 05:16:39;;;;;;;2.00;1.00;;;;;;;21.61;44.65;101202.41;4618608;27;20043;-62
2023/10/05 05:18:50;;;;;;;1.42;0.90;;;;;;;21.71;44.43;101216.31;4619003;27;20031;-62
2023/10/05 05:21:00;;;;;;;1.30;0.65;;;;;;;21.70;44.49;101225.28;4619503;27;20034;-62
2023/10/05 05:23:13;;;;;;;1.63;0.80;;;;;;;21.64;44.53;101213.22;4617821;27;20027;-62
2023/10/05 05:25:23;;;;;;;1.95;1.00;;;;;;;21.70;44.24;101233.91;4617443;27;20035;-62
2023/10/05 05:27:33;;;;;;;1.73;0.90;;;;;;;21.68;44.59;101224.78;4621420;27;20035;-62
2023/10/05 05:29:45;;;;;;;1.58;0.77;;;;;;;21.69;44.42;101223.63;4619231;27;20035;-62
2023/10/05 05:31:56;;;;;;;1.70;0.80;;;;;;;21.70;44.51;101234.75;4605804;27;20878;-62
2023/10/05 05:34:07;;;;;;;1.05;0.70;;;;;;;21.70;44.86;101234.75;4600576;27;20028;-62
2023/10/05 05:36:17;;;;;;;1.70;0.80;;;;;;;21.68;44.48;101228.50;4618647;27;20479;-62
2023/10/05 05:38:28;;;;;;;1.90;0.80;;;;;;;21.70;44.90;101239.66;4616929;27;20035;-62
2023/10/05 05:40:39;;;;;;;0.95;0.60;;;;;;;21.71;44.67;101242.16;4618317;27;20089;-62
2023/10/05 05:42:54;;;;;;;2.53;0.80;;;;;;;21.68;44.72;101237.13;4618487;27;20037;-62
2023/10/05 05:45:08;;;;;;;1.58;0.80;;;;;;;21.69;44.48;101244.53;4618141;27;20034;-62
2023/10/05 05:47:19;;;;;;;1.23;0.80;;;;;;;21.65;44.85;101229.25;4617853;27;20039;-62
2023/10/05 05:49:30;;;;;;;1.83;0.90;;;;;;;21.66;44.73;101242.41;4616844;27;20039;-62
2023/10/05 05:51:41;;;;;;;1.40;0.82;;;;;;;21.69;44.92;101243.72;4618679;27;20046;-62
2023/10/05 05:53:52;;;;;;;1.48;0.70;;;;;;;21.68;44.84;101245.75;4617222;27;20108;-62
2023/10/05 05:56:03;;;;;;;1.77;0.80;;;;;;;21.60;44.89;101232.34;4618023;27;20589;-63
2023/10/05 05:58:14;;;;;;;1.85;0.90;;;;;;;21.68;44.97;101244.91;4616599;27;20043;-62
2023/10/05 06:00:25;;;;;;;2.33;1.00;;;;;;;21.67;44.95;101246.97;4618384;27;20096;-62
2023/10/05 06:02:35;;;;;;;1.80;0.80;;;;;;;21.68;44.96;101240.00;4617090;27;20060;-62
2023/10/05 06:04:48;;;;;;;1.50;0.85;;;;;;;21.66;44.76;101232.97;4593631;27;20511;-62
2023/10/05 06:07:00;;;;;;;1.70;1.10;;;;;;;21.66;44.46;101236.66;4618562;27;20015;-62
2023/10/05 06:09:11;;;;;;;2.22;0.90;;;;;;;21.64;44.75;101229.59;4617847;27;20144;-62
2023/10/05 06:11:22;;;;;;;1.27;0.70;;;;;;;21.60;44.44;101223.72;4617250;27;20038;-62
2023/10/05 06:13:36;;;;;;;1.48;0.85;;;;;;;21.64;44.71;101244.81;4620119;27;20857;-62
2023/10/05 06:15:47;;;;;;;1.48;0.80;;;;;;;21.65;44.79;101237.84;4617299;27;20042;-62
2023/10/05 06:18:00;;;;;;;1.88;0.80;;;;;;;21.66;44.89;101245.25;4619009;27;20035;-62
2023/10/05 06:20:14;;;;;;;1.70;1.00;;;;;;;21.67;45.09;101251.88;4616584;27;20635;-62
2023/10/05 06:22:25;;;;;;;1.58;0.80;;;;;;;21.63;45.06;101239.41;4618555;27;20039;-62
2023/10/05 06:24:40;;;;;;;1.63;0.88;;;;;;;21.65;44.87;101249.34;4617842;27;20482;-63
2023/10/05 06:26:50;;;;;;;1.58;0.90;;;;;;;21.66;44.76;101239.53;4616289;27;20118;-63
2023/10/05 06:29:01;;;;;;;2.13;0.98;;;;;;;21.67;44.98;101252.72;4616135;27;20480;-63
2023/10/05 06:31:12;;;;;;;1.52;0.75;;;;;;;21.65;45.09;101249.34;4617912;27;20031;-63
2023/10/05 06:33:22;;;;;;;1.63;0.80;;;;;;;21.67;45.05;101241.22;4617713;27;20055;-62
2023/10/05 06:35:33;;;;;;;1.13;0.68;;;;;;;21.65;45.38;101242.75;4616805;27;20046;-62
2023/10/05 06:37:44;;;;;;;1.38;0.70;;;;;;;21.64;44.94;101241.94;4617028;27;21130;-62
2023/10/05 06:39:54;;;;;;;1.95;0.75;;;;;;;21.66;45.26;101251.00;4617915;27;20108;-63
2023/10/05 06:42:06;;;;;;;1.38;0.93;;;;;;;21.62;44.95;101240.59;4618597;27;20129;-63
2023/10/05 06:44:19;;;;;;;1.25;0.70;;;;;;;21.63;45.22;101234.50;4618054;27;20031;-62
2023/10/05 06:46:29;;;;;;;1.90;0.82;;;;;;;21.65;45.13;101243.59;4618211;27;20476;-62
2023/10/05 06:48:40;;;;;;;2.58;1.00;;;;;;;21.61;45.37;101248.38;4617091;27;20039;-62
2023/10/05 06:50:52;;;;;;;1.92;0.95;;;;;;;21.65;45.06;101254.25;4623372;27;20023;-62
2023/10/05 06:53:03;;;;;;;1.48;0.80;;;;;;;21.65;45.25;101260.00;4599221;27;20039;-62
2023/10/05 06:55:17;;;;;;;1.10;0.73;;;;;;;21.63;45.28;101253.75;4618081;27;20085;-62
2023/10/05 06:57:29;;;;;;;1.73;0.80;;;;;;;21.64;45.25;101259.19;4606818;27;20642;-62
2023/10/05 06:59:42;;;;;;;2.03;0.80;;;;;;;21.60;46.00;101258.19;4618257;27;20039;-62
2023/10/05 07:01:52;;;;;;;1.35;0.70;;;;;;;21.63;45.90;101266.09;4618742;27;20043;-62
2023/10/05 07:04:07;;;;;;;1.05;0.65;;;;;;;21.60;46.18;101261.06;4618918;27;20031;-62
2023/10/05 07:06:25;;;;;;;1.38;0.80;;;;;;;21.64;45.69;101272.69;4617258;27;20035;-62
2023/10/05 07:08:35;;;;;;;1.67;0.80;;;;;;;21.63;45.75;101268.97;4617598;27;20031;-63
2023/10/05 07:10:45;;;;;;;2.05;1.10;;;;;;;21.62;45.84;101273.06;4618091;27;20061;-63
2023/10/05 07:12:56;;;;;;;1.33;0.75;;;;;;;21.63;45.95;101279.63;4617595;27;20134;-63
2023/10/05 07:15:07;;;;;;;1.98;0.90;;;;;;;21.63;46.12;101273.88;4618571;27;20027;-63
2023/10/05 07:17:18;;;;;;;0.98;0.73;;;;;;;21.62;46.37;101277.94;4617392;27;20035;-62
2023/10/05 07:19:28;;;;;;;1.40;0.90;;;;;;;21.61;46.27;101282.84;4617488;27;20047;-62
2023/10/05 07:21:38;;;;;;;2.03;0.80;;;;;;;21.63;46.37;101291.97;4617533;27;20094;-62
2023/10/05 07:23:49;;;;;;;2.28;1.00;;;;;;;21.63;46.43;101291.97;4617409;27;20403;-62
2023/10/05 07:25:59;;;;;;;1.73;0.70;;;;;;;21.62;46.22;101286.56;4617100;27;20039;-62
2023/10/05 07:28:14;;;;;;;2.08;0.90;;;;;;;21.60;46.46;101284.06;4617059;27;20042;-63
2023/10/05 07:30:24;;;;;;;1.77;0.77;;;;;;;21.62;45.94;101298.91;4617979;27;20140;-62
2023/10/05 07:32:36;;;;;;;2.20;0.80;;;;;;;21.61;46.43;101300.09;4617276;27;20074;-62
2023/10/05 07:34:46;;;;;;;0.65;0.60;;;;;;;21.61;46.36;101305.84;4614319;27;20016;-62
2023/10/05 07:36:57;;;;;;;1.88;0.80;;;;;;;21.63;46.64;101312.06;4614719;27;20039;-63
2023/10/05 07:39:11;;;;;;;1.92;0.88;;;;;;;21.58;46.57;101297.94;4617254;27;20023;-62
2023/10/05 07:41:21;;;;;;;1.50;0.85;;;;;;;21.62;46.30;101312.44;4616740;27;20099;-62
2023/10/05 07:43:32;;;;;;;2.17;0.90;;;;;;;21.62;46.87;101318.16;4616413;27;20053;-62
2023/10/05 07:45:42;;;;;;;1.02;0.70;;;;;;;21.62;46.76;101324.75;4616940;27;20034;-62
2023/10/05 07:47:53;;;;;;;1.30;0.80;;;;;;;21.59;46.45;101319.75;4617943;27;20628;-62
2023/10/05 07:50:04;;;;;;;2.83;0.80;;;;;;;21.60;47.04;101324.28;4616336;27;20031;-62
2023/10/05 07:52:16;;;;;;;1.15;0.82;;;;;;;21.61;46.99;101323.06;4615214;27;20082;-63
2023/10/05 07:54:27;;;;;;;1.50;0.82;;;;;;;21.58;47.06;101332.41;4604326;27;20150;-62
2023/10/05 07:56:37;;;;;;;1.90;0.90;;;;;;;21.62;47.24;101338.28;4616281;27;20016;-62
2023/10/05 07:58:48;;;;;;;1.45;0.80;;;;;;;21.62;47.33;101335.41;4615663;27;20035;-63
2023/10/05 08:00:59;;;;;;;1.60;0.70;;;;;;;21.59;47.42;101342.72;4616438;27;20387;-62
2023/10/05 08:03:09;;;;;;;1.63;0.70;;;;;;;21.53;47.01;101324.00;4617079;27;20114;-63
2023/10/05 08:05:20;;;;;;;1.63;0.70;;;;;;;21.58;47.91;101334.47;4615618;27;20035;-62
2023/10/05 08:07:30;;;;;;;1.75;0.85;;;;;;;21.60;47.16;101343.53;4616329;27;20050;-62
2023/10/05 08:09:43;;;;;;;2.72;1.10;;;;;;;21.61;47.33;101348.09;4616611;27;20063;-62
2023/10/05 08:11:57;;;;;;;1.20;0.82;;;;;;;21.60;47.74;101337.78;4616592;27;20130;-63
2023/10/05 08:14:08;;;;;;;1.48;0.80;;;;;;;21.60;47.43;101344.38;4614768;27;20023;-63
2023/10/05 08:16:18;;;;;;;1.77;0.80;;;;;;;21.58;47.50;101349.63;4615850;27;20039;-62
2023/10/05 08:18:28;;;;;;;1.88;0.75;;;;;;;21.59;47.66;101351.34;4616531;27;20019;-64
2023/10/05 08:20:39;;;;;;;1.25;0.75;;;;;;;21.60;47.34;101344.38;4616706;27;20706;-62
2023/10/05 08:22:49;;;;;;;2.97;0.90;;;;;;;21.60;47.75;101357.91;4615816;27;20061;-62
2023/10/05 08:25:07;;;;;;;2.30;0.80;;;;;;;21.60;47.83;101358.75;4616057;27;20042;-62
2023/10/05 08:27:17;;;;;;;1.27;0.82;;;;;;;21.59;47.38;101362.84;4617011;27;20038;-62
2023/10/05 08:29:28;;;;;;;2.05;1.00;;;;;;;21.57;47.37;101367.22;4617048;27;20068;-63
2023/10/05 08:31:38;;;;;;;1.70;0.70;;;;;;;21.58;47.86;101369.75;4615517;27;20031;-62
2023/10/05 08:33:53;;;;;;;1.92;1.00;;;;;;;21.55;48.01;101358.16;4617112;27;20038;-62
2023/10/05 08:36:11;;;;;;;1.52;0.70;;;;;;;21.60;48.00;101370.25;4616074;27;20123;-62
2023/10/05 08:38:24;;;;;;;2.70;0.90;;;;;;;21.54;48.04;101367.94;4615593;27;20120;-63
2023/10/05 08:40:41;;;;;;;2.15;0.90;;;;;;;21.53;47.90;101364.22;4615719;27;20047;-62
2023/10/05 08:42:54;;;;;;;1.73;0.80;;;;;;;21.58;47.67;101368.94;4616004;27;20023;-62
2023/10/05 08:45:05;;;;;;;2.25;0.90;;;;;;;21.58;48.22;101378.38;4615141;27;20038;-62
2023/10/05 08:47:16;;;;;;;1.63;0.88;;;;;;;21.58;48.32;101368.94;4604344;27;20035;-64
2023/10/05 08:49:27;;;;;;;2.10;0.80;;;;;;;21.56;48.26;101375.03;4616140;27;20039;-62
2023/10/05 08:51:39;;;;;;;2.00;1.02;;;;;;;21.58;48.59;101374.69;4605417;27;20039;-62
2023/10/05 08:53:54;;;;;;;2.53;0.90;;;;;;;21.59;47.90;101374.31;4614746;27;21448;-62
2023/10/05 08:56:05;;;;;;;1.58;0.70;;;;;;;21.58;48.15;101372.63;4615072;27;20035;-62
2023/10/05 08:58:18;;;;;;;2.78;1.05;;;;;;;21.55;47.97;101370.47;4616220;27;20035;-63
2023/10/05 09:00:38;;;;;;;1.77;0.90;;;;;;;21.56;48.01;101371.31;4617536;27;20602;-62
2023/10/05 09:02:48;;;;;;;1.55;0.90;;;;;;;21.57;48.33;101372.97;4614989;27;20092;-62
2023/10/05 09:04:59;;;;;;;1.50;0.82;;;;;;;21.57;48.47;101384.47;4615961;27;20088;-62
2023/10/05 09:07:37;;;;;;;2.25;0.90;;;;;;;21.58;48.26;101381.25;4603537;27;20039;-62
2023/10/05 09:09:52;;;;;;;1.33;1.00;;;;;;;21.58;48.61;101381.25;4618140;27;20077;-63
2023/10/05 09:12:40;;;;;;;1.40;0.80;;;;;;;21.58;48.73;101375.50;4616582;27;20043;-62
2023/10/05 09:15:07;;;;;;;1.50;0.80;;;;;;;21.55;48.51;101378.25;4630886;27;20137;-62
2023/10/05 09:17:22;;;;;;;1.55;0.90;;;;;;;21.54;48.54;101373.69;4615713;27;20039;-62
2023/10/05 09:19:33;;;;;;;2.47;1.00;;;;;;;21.55;48.24;101372.53;4615817;27;20039;-62
2023/10/05 09:21:55;;;;;;;1.30;1.10;;;;;;;21.58;47.92;101374.69;4614985;27;20058;-62
2023/10/05 09:24:19;;;;;;;1.40;0.90;;;;;;;21.54;48.63;101376.56;4597707;27;20073;-62
2023/10/05 09:26:39;;;;;;;1.42;0.80;;;;;;;21.54;48.13;101373.69;4615400;27;20067;-62
2023/10/05 09:28:51;;;;;;;1.75;0.93;;;;;;;21.55;48.14;101387.69;4616671;27;20037;-62
2023/10/05 09:31:07;;;;;;;1.48;0.85;;;;;;;21.57;48.39;101395.97;4615799;27;20828;-62
2023/10/05 09:33:21;;;;;;;2.20;0.90;;;;;;;21.56;48.55;101395.16;4604473;27;20027;-62
2023/10/05 09:35:31;;;;;;;1.48;0.90;;;;;;;21.57;48.55;101391.06;4615560;27;20491;-63
2023/10/05 09:37:42;;;;;;;1.52;0.90;;;;;;;21.53;48.43;101387.19;4614960;27;20523;-62
2023/10/05 09:39:59;;;;;;;2.22;1.17;;;;;;;21.57;48.31;101390.22;4614463;27;20039;-62
2023/10/05 09:42:17;;;;;;;2.25;0.90;;;;;;;21.56;48.25;101394.28;4615294;27;20023;-62
2023/10/05 09:44:31;;;;;;;2.40;1.00;;;;;;;21.56;48.63;101403.75;4615647;27;20076;-62
2023/10/05 09:46:43;;;;;;;2.17;0.90;;;;;;;21.56;48.12;101391.41;4616741;27;20035;-62
2023/10/05 09:49:01;;;;;;;1.63;1.00;;;;;;;21.56;48.54;101394.28;4620855;27;20109;-62
2023/10/05 09:51:13;;;;;;;2.00;0.80;;;;;;;21.54;48.28;101403.25;4596327;27;20036;-62
2023/10/05 09:53:24;;;;;;;2.42;0.85;;;;;;;21.56;48.36;101403.75;4615575;27;20026;-62
2023/10/05 09:55:35;;;;;;;2.65;0.90;;;;;;;21.57;48.50;101401.72;4597240;27;20046;-62
2023/10/05 09:57:46;;;;;;;1.65;0.95;;;;;;;21.56;49.05;101405.78;4615892;27;20027;-62
2023/10/05 10:00:00;;;;;;;1.77;0.80;;;;;;;21.54;49.06;101393.81;4615833;27;20890;-62
2023/10/05 10:02:16;;;;;;;1.58;0.98;;;;;;;21.56;49.42;101400.03;4618994;27;20938;-62
2023/10/05 10:04:47;;;;;;;1.77;0.90;;;;;;;21.51;49.20;101392.50;4616394;27;20267;-63
2023/10/05 10:07:01;;;;;;;1.80;0.65;;;;;;;21.56;49.28;101394.28;4622603;27;20082;-63
2023/10/05 10:09:11;;;;;;;1.55;0.88;;;;;;;21.57;48.81;101407.44;4617049;27;20067;-62
2023/10/05 10:11:27;;;;;;;1.75;0.93;;;;;;;21.46;48.86;101381.22;4617284;27;20515;-62
2023/10/05 10:13:37;;;;;;;2.78;0.88;;;;;;;21.55;48.67;101402.06;4621131;27;20043;-62
2023/10/05 10:15:49;;;;;;;1.33;0.90;;;;;;;21.56;48.80;101405.78;4617061;27;20043;-63
2023/10/05 10:18:14;;;;;;;2.67;0.90;;;;;;;21.55;49.00;101399.19;4616840;27;20062;-63
2023/10/05 10:20:35;;;;;;;1.77;0.90;;;;;;;21.55;48.85;101416.44;4617883;27;20614;-62
2023/10/05 10:23:00;;;;;;;1.10;0.60;;;;;;;21.57;48.68;101408.31;4617736;27;20104;-62
2023/10/05 10:25:28;;;;;;;1.45;0.70;;;;;;;21.54;48.80;101411.88;4619248;27;20032;-62
2023/10/05 10:27:38;;;;;;;2.17;1.00;;;;;;;21.53;49.41;101407.31;4617786;27;20028;-62
2023/10/05 10:29:55;;;;;;;1.70;0.90;;;;;;;21.51;48.84;101403.97;4618792;27;20499;-62
2023/10/05 10:32:19;;;;;;;2.08;1.10;;;;;;;21.58;48.53;101418.59;4619977;27;20151;-62
2023/10/05 10:34:49;;;;;;;1.75;0.90;;;;;;;21.51;49.00;101409.72;4620028;27;20061;-64